Alix Anne Eckstein — WDH6446 — position and weather

sailwx.info

Track history (hours):
 
Tides and Currents Weather Stations Pressure Air Temp Water Temp Dewpoint Dewpoint Depression Visibility Wind Speed Wind Dir Waves Ship Positions

Alix Anne Eckstein

Owner: Marquette Transportation Co. LLC, Paducah, KY. More information available from US FCC via Universal Licensing System and Coast Guard Vessel Documentation Center.

Last reported at 2018-Jun-17 12:36 UTC. Time now 2018-Jun-19 03:03 UTC.
Position N 31°57' W 091°11'.

Length 48 m; draft 3.2 m.

Type: Tow > 200 m length. MMSI: 367638050.

Date/timePositionNaut miles runAvg speedWind from/ knotsBaromVisibWave heightAir tempDewpointWater temp
2018-Jun-17 12:36N 31°57' W 091°11'1 9.3
2018-Jun-17 12:30N 31°58' W 091°11'5 8.8
2018-Jun-17 11:59N 31°59' W 091°06'5 9.4
2018-Jun-17 11:29N 32°04' W 091°03'4 9.1
2018-Jun-17 11:00N 32°07' W 091°07'2 3.5
2018-Jun-17 10:29N 32°08' W 091°05'4 7.8
2018-Jun-17 10:00N 32°09' W 091°00'5 9.5
2018-Jun-17 09:31N 32°13' W 090°59'5 9.1
2018-Jun-17 09:00N 32°17' W 090°56'4 7.0
2018-Jun-17 08:30N 32°20' W 090°55'4 8.8
2018-Jun-17 08:01N 32°21' W 090°60'4 7.5
2018-Jun-17 07:31N 32°25' W 090°60'3 7.0
2018-Jun-17 07:01N 32°26' W 091°04'4 7.7
2018-Jun-17 06:31N 32°29' W 091°07'4 8.2
2018-Jun-17 06:00N 32°33' W 091°06'4 8.3
2018-Jun-17 05:30N 32°36' W 091°09'3 6.5
2018-Jun-17 05:00N 32°40' W 091°08'4 7.0
2018-Jun-17 04:29N 32°41' W 091°04'5 5.6
2018-Jun-17 03:38N 32°44' W 091°09'1 8.1
2018-Jun-17 03:30N 32°45' W 091°09'  
Track history (hours):
 
Tides and Currents Weather Stations Pressure Air Temp Water Temp Dewpoint Dewpoint Depression Visibility Wind Speed Wind Dir Waves Ship Positions

Alix Anne Eckstein

Owner: Marquette Transportation Co. LLC, Paducah, KY. More information available from US FCC via Universal Licensing System and Coast Guard Vessel Documentation Center.

Last reported at 2018-Jun-17 12:36 UTC. Time now 2018-Jun-19 03:03 UTC.
Position N 31°57' W 091°11'.

Length 48 m; draft 3.2 m.

Type: Tow > 200 m length. MMSI: 367638050.

Date/timePositionNaut miles runAvg speedWind from/ knotsBaromVisibWave heightAir tempDewpointWater temp
2018-Jun-17 12:36N 31°57' W 091°11'1 9.3
2018-Jun-17 12:30N 31°58' W 091°11'5 8.8
2018-Jun-17 11:59N 31°59' W 091°06'5 9.4
2018-Jun-17 11:29N 32°04' W 091°03'4 9.1
2018-Jun-17 11:00N 32°07' W 091°07'2 3.5
2018-Jun-17 10:29N 32°08' W 091°05'4 7.8
2018-Jun-17 10:00N 32°09' W 091°00'5 9.5
2018-Jun-17 09:31N 32°13' W 090°59'5 9.1
2018-Jun-17 09:00N 32°17' W 090°56'4 7.0
2018-Jun-17 08:30N 32°20' W 090°55'4 8.8
2018-Jun-17 08:01N 32°21' W 090°60'4 7.5
2018-Jun-17 07:31N 32°25' W 090°60'3 7.0
2018-Jun-17 07:01N 32°26' W 091°04'4 7.7
2018-Jun-17 06:31N 32°29' W 091°07'4 8.2
2018-Jun-17 06:00N 32°33' W 091°06'4 8.3
2018-Jun-17 05:30N 32°36' W 091°09'3 6.5
2018-Jun-17 05:00N 32°40' W 091°08'4 7.0
2018-Jun-17 04:29N 32°41' W 091°04'5 5.6
2018-Jun-17 03:38N 32°44' W 091°09'1 8.1
2018-Jun-17 03:30N 32°45' W 091°09'  

Dump ship's entire track history